createdAt,value
2019-01-30T07:53:49.199Z,978.05
2019-01-30T07:54:48.434Z,978.10
2019-01-30T07:55:48.268Z,978.14
2019-01-30T07:56:50.154Z,978.15
2019-01-30T07:57:48.612Z,978.13
2019-01-30T07:58:48.210Z,978.17
2019-01-30T07:59:49.155Z,978.12
2019-01-30T08:00:54.898Z,978.13
2019-01-30T08:01:49.711Z,978.12
2019-01-30T08:02:53.243Z,978.09
2019-01-30T08:03:55.201Z,978.09
2019-01-30T08:04:47.701Z,978.15
2019-01-30T08:05:46.297Z,978.12
2019-01-30T08:06:47.753Z,978.18
2019-01-30T08:07:48.210Z,978.17
2019-01-30T08:08:49.673Z,978.14
2019-01-30T08:09:48.334Z,978.16
2019-01-30T08:10:49.655Z,978.14
2019-01-30T08:11:48.190Z,978.22
2019-01-30T08:12:48.322Z,978.16
2019-01-30T08:13:48.147Z,978.13
2019-01-30T08:14:50.320Z,978.21
2019-01-30T08:17:25.904Z,978.20
2019-01-30T08:18:26.438Z,978.18
2019-01-30T08:19:32.257Z,978.21
2019-01-30T08:20:31.346Z,978.16
2019-01-30T08:21:34.213Z,978.16
2019-01-30T08:22:26.041Z,978.17
2019-01-30T08:23:29.577Z,978.23
2019-01-30T08:24:26.282Z,978.12
2019-01-30T08:25:26.944Z,978.16
2019-01-30T08:26:27.383Z,978.16
2019-01-30T08:27:29.026Z,978.16
2019-01-30T08:28:27.035Z,978.20
2019-01-30T08:29:39.387Z,978.20
2019-01-30T08:30:26.019Z,978.24
2019-01-30T08:31:25.194Z,978.21
2019-01-30T08:32:25.329Z,978.26
2019-01-30T08:33:26.223Z,978.23
2019-01-30T08:34:35.923Z,978.28
2019-01-30T08:35:25.240Z,978.24
2019-01-30T08:36:25.405Z,978.41
2019-01-30T08:37:25.035Z,978.31
2019-01-30T08:38:25.790Z,978.33
2019-01-30T08:39:25.630Z,978.33
2019-01-30T08:40:25.784Z,978.33
2019-01-30T08:41:25.912Z,978.37
2019-01-30T08:42:25.386Z,978.37
2019-01-30T08:43:25.187Z,978.36
2019-01-30T08:44:29.974Z,978.39
2019-01-30T08:45:26.189Z,978.42
2019-01-30T08:46:27.582Z,978.38
2019-01-30T08:47:36.770Z,978.32
2019-01-30T08:48:24.096Z,978.36
2019-01-30T08:50:51.473Z,978.38
2019-01-30T08:51:42.373Z,978.35
2019-01-30T08:52:41.106Z,978.35
2019-01-30T08:53:42.131Z,978.39
2019-01-30T08:54:42.985Z,978.41
2019-01-30T08:55:40.574Z,978.36
2019-01-30T08:56:52.488Z,978.44
2019-01-30T08:57:49.837Z,978.39
2019-01-30T08:58:45.489Z,978.41
2019-01-30T08:59:40.656Z,978.36
2019-01-30T09:01:58.272Z,978.36
2019-01-30T09:02:56.823Z,978.38
2019-01-30T09:03:54.603Z,978.35
2019-01-30T09:05:00.340Z,978.40
2019-01-30T09:05:56.792Z,978.33
2019-01-30T09:06:56.628Z,978.38
2019-01-30T09:07:59.906Z,978.42
2019-01-30T09:08:58.494Z,978.37
2019-01-30T09:09:56.172Z,978.44
2019-01-30T09:10:56.740Z,978.41
2019-01-30T09:11:57.649Z,978.36
2019-01-30T09:12:56.415Z,978.36
2019-01-30T09:13:58.448Z,978.37
2019-01-30T09:15:00.564Z,978.46
2019-01-30T09:15:57.752Z,978.46
2019-01-30T09:16:54.593Z,978.48
2019-01-30T09:18:02.432Z,978.44
2019-01-30T09:18:56.481Z,978.50
2019-01-30T09:19:56.894Z,978.52
2019-01-30T09:20:55.741Z,978.47
2019-01-30T09:22:08.918Z,978.50
2019-01-30T09:22:57.943Z,978.45
2019-01-30T09:23:57.118Z,978.57
2019-01-30T09:24:58.776Z,978.53
2019-01-30T09:25:59.051Z,978.56
2019-01-30T09:27:01.058Z,978.54
2019-01-30T09:28:25.979Z,978.59
2019-01-30T09:29:01.405Z,978.55
2019-01-30T09:30:04.338Z,978.62
2019-01-30T09:31:11.024Z,978.61
2019-01-30T09:32:00.181Z,978.62
2019-01-30T09:32:55.455Z,978.61
2019-01-30T09:34:04.765Z,978.59
2019-01-30T09:34:55.818Z,978.59
2019-01-30T09:35:57.874Z,978.57
2019-01-30T09:36:55.931Z,978.59
2019-01-30T09:37:56.320Z,978.60
2019-01-30T09:38:56.341Z,978.64
2019-01-30T09:39:55.323Z,978.57
2019-01-30T09:40:55.337Z,978.61
2019-01-30T09:41:55.372Z,978.64
2019-01-30T09:42:56.109Z,978.64
2019-01-30T09:43:55.578Z,978.66
2019-01-30T09:44:58.497Z,978.66
2019-01-30T09:45:55.581Z,978.66
2019-01-30T09:46:56.065Z,978.71
2019-01-30T09:47:55.085Z,978.72
2019-01-30T09:48:57.313Z,978.77
2019-01-30T09:49:56.360Z,978.75
2019-01-30T09:50:57.735Z,978.77
2019-01-30T09:51:55.213Z,978.79
2019-01-30T09:52:55.715Z,978.78
2019-01-30T09:53:57.512Z,978.76
2019-01-30T09:55:03.653Z,978.79
2019-01-30T09:55:54.720Z,978.80
2019-01-30T09:56:55.190Z,978.84
2019-01-30T09:57:56.720Z,978.80
2019-01-30T09:58:57.628Z,978.83
2019-01-30T09:59:55.624Z,978.82
2019-01-30T10:00:58.234Z,978.88
2019-01-30T10:01:58.195Z,978.89
2019-01-30T10:02:57.620Z,978.87
2019-01-30T10:03:55.883Z,978.89
2019-01-30T10:04:57.322Z,978.95
2019-01-30T10:05:55.651Z,978.95
2019-01-30T10:06:55.220Z,978.96
2019-01-30T10:07:55.542Z,978.99
2019-01-30T10:08:57.989Z,978.97
2019-01-30T10:09:59.027Z,978.96
2019-01-30T10:11:04.749Z,979.01
2019-01-30T10:11:57.268Z,978.96
2019-01-30T10:12:59.165Z,978.99
2019-01-30T10:14:33.807Z,979.07
2019-01-30T10:14:57.645Z,978.97
2019-01-30T10:15:57.495Z,978.99
2019-01-30T10:16:58.773Z,979.03
2019-01-30T10:17:55.609Z,979.05
2019-01-30T10:18:56.657Z,979.03
2019-01-30T10:19:56.082Z,979.04
2019-01-30T10:21:03.370Z,979.04
2019-01-30T10:21:55.570Z,979.05
2019-01-30T10:22:57.534Z,979.09
2019-01-30T10:24:05.052Z,979.15
2019-01-30T10:25:04.607Z,979.18
2019-01-30T10:25:56.363Z,979.20
2019-01-30T10:26:58.829Z,979.23
2019-01-30T10:27:58.447Z,979.20
2019-01-30T10:28:55.450Z,979.23
2019-01-30T10:29:58.778Z,979.27
2019-01-30T10:31:01.720Z,979.25
2019-01-30T10:31:56.281Z,979.24
2019-01-30T10:33:06.258Z,979.24
2019-01-30T10:33:57.189Z,979.24
2019-01-30T10:35:24.014Z,979.27
2019-01-30T10:36:09.215Z,979.28
2019-01-30T10:36:53.668Z,979.27
2019-01-30T10:38:05.707Z,979.30
2019-01-30T10:39:06.250Z,979.33
2019-01-30T10:40:01.138Z,979.35
2019-01-30T10:40:56.902Z,979.31
2019-01-30T10:42:03.088Z,979.29
2019-01-30T10:42:57.135Z,979.43
2019-01-30T10:44:15.996Z,979.36
2019-01-30T10:44:55.768Z,979.36
2019-01-30T10:45:58.547Z,979.39
2019-01-30T10:46:57.004Z,979.41
2019-01-30T10:48:21.328Z,979.37
2019-01-30T10:49:04.045Z,979.40
2019-01-30T10:50:12.867Z,979.37
2019-01-30T10:50:53.548Z,979.40
2019-01-30T10:51:54.428Z,979.40
2019-01-30T10:53:26.022Z,979.39
2019-01-30T10:53:54.113Z,979.42
2019-01-30T10:54:53.572Z,979.42
2019-01-30T10:55:59.473Z,979.44
2019-01-30T10:56:57.903Z,979.45
2019-01-30T10:57:58.181Z,979.43
2019-01-30T10:58:58.709Z,979.42
2019-01-30T10:59:53.982Z,979.42
2019-01-30T11:01:20.485Z,979.45
2019-01-30T11:01:58.943Z,979.46
2019-01-30T11:02:58.130Z,979.51
2019-01-30T11:03:58.051Z,979.43
2019-01-30T11:04:58.924Z,979.46
2019-01-30T11:06:00.476Z,979.47
2019-01-30T11:06:55.465Z,979.52
2019-01-30T11:07:56.133Z,979.60
2019-01-30T11:08:58.696Z,979.59
2019-01-30T11:09:57.270Z,979.55
2019-01-30T11:11:07.287Z,979.61
2019-01-30T11:12:00.672Z,979.57
2019-01-30T11:12:54.788Z,979.62
2019-01-30T11:13:56.008Z,979.59
2019-01-30T11:14:58.892Z,979.68
2019-01-30T11:15:58.171Z,979.61
2019-01-30T11:16:55.648Z,979.65
2019-01-30T11:17:59.037Z,979.69
2019-01-30T11:18:59.146Z,979.64
2019-01-30T11:19:52.980Z,979.64
2019-01-30T11:20:53.002Z,979.66
2019-01-30T11:21:53.049Z,979.64
2019-01-30T11:22:55.279Z,979.60
2019-01-30T11:23:53.001Z,979.64
2019-01-30T11:24:53.042Z,979.61
2019-01-30T11:25:53.032Z,979.69
2019-01-30T11:26:59.826Z,979.61
2019-01-30T11:27:53.027Z,979.66
2019-01-30T11:28:52.982Z,979.66
2019-01-30T11:29:53.168Z,979.66
2019-01-30T11:30:52.938Z,979.66
2019-01-30T11:31:53.696Z,979.74
2019-01-30T11:32:55.532Z,979.73
2019-01-30T11:33:53.010Z,979.79
2019-01-30T11:34:53.219Z,979.90
2019-01-30T11:35:52.823Z,979.91
2019-01-30T11:36:52.931Z,979.81
2019-01-30T11:37:52.942Z,979.84
2019-01-30T11:38:55.774Z,979.98
2019-01-30T11:39:55.263Z,979.90
2019-01-30T11:40:56.118Z,979.83
2019-01-30T11:41:55.180Z,979.91
2019-01-30T11:42:54.637Z,979.97
2019-01-30T11:43:54.826Z,979.86
2019-01-30T11:44:56.851Z,979.88
2019-01-30T11:45:55.617Z,979.93
2019-01-30T11:46:58.661Z,979.95
2019-01-30T11:47:52.947Z,980.01
2019-01-30T11:48:57.032Z,980.02
2019-01-30T11:49:59.219Z,980.04
2019-01-30T11:51:00.121Z,980.02
2019-01-30T11:51:55.137Z,980.02
2019-01-30T11:52:58.286Z,980.03
2019-01-30T11:53:52.960Z,980.07
2019-01-30T11:54:52.729Z,980.03
2019-01-30T11:55:52.832Z,980.05
2019-01-30T11:56:56.261Z,980.06
2019-01-30T11:57:54.435Z,980.13
2019-01-30T11:58:58.795Z,980.10
2019-01-30T11:59:54.799Z,980.08
2019-01-30T12:00:55.136Z,980.20
2019-01-30T12:01:56.182Z,980.11
2019-01-30T12:02:54.968Z,980.18
2019-01-30T12:03:59.534Z,980.15
2019-01-30T12:04:55.368Z,980.21
2019-01-30T12:05:59.596Z,980.22
2019-01-30T12:06:55.979Z,980.28
2019-01-30T12:07:55.267Z,980.28
2019-01-30T12:09:09.324Z,980.31
2019-01-30T12:10:18.102Z,980.33
2019-01-30T12:10:55.963Z,980.32
2019-01-30T12:11:54.798Z,980.32
2019-01-30T12:12:54.799Z,980.37
2019-01-30T12:13:54.816Z,980.27
2019-01-30T12:14:55.064Z,980.35
2019-01-30T12:16:00.707Z,980.50
2019-01-30T12:17:57.952Z,980.41
2019-01-30T12:28:14.410Z,980.68
2019-01-30T12:29:36.485Z,980.64
2019-01-30T12:30:57.102Z,980.70
2019-01-30T12:31:35.771Z,980.69
2019-01-30T12:32:35.860Z,980.72
2019-01-30T12:33:33.886Z,980.70
2019-01-30T12:34:35.830Z,980.70
2019-01-30T12:35:36.116Z,980.74
2019-01-30T12:36:33.883Z,980.71
2019-01-30T12:37:35.574Z,980.75
2019-01-30T12:38:36.546Z,980.76
2019-01-30T12:39:36.705Z,980.70
2019-01-30T12:40:35.592Z,980.69
2019-01-30T12:41:36.308Z,980.67
2019-01-30T12:42:33.789Z,980.70
2019-01-30T12:43:36.435Z,980.71
2019-01-30T12:44:36.787Z,980.74
2019-01-30T12:45:35.795Z,980.78
2019-01-30T12:46:36.201Z,980.77
2019-01-30T12:47:33.939Z,980.79
2019-01-30T12:48:34.825Z,980.81
2019-01-30T12:49:35.083Z,980.85
2019-01-30T12:50:34.939Z,980.85
2019-01-30T12:51:36.194Z,980.88
2019-01-30T12:52:42.520Z,980.89
2019-01-30T12:53:34.930Z,980.90
2019-01-30T12:54:42.395Z,980.88
2019-01-30T12:55:35.474Z,980.90
2019-01-30T12:56:35.332Z,980.89
2019-01-30T12:57:34.890Z,980.94
2019-01-30T12:58:36.925Z,980.99
2019-01-30T12:59:35.003Z,980.97
2019-01-30T13:00:40.199Z,981.02
2019-01-30T13:01:41.189Z,980.99
2019-01-30T13:02:47.032Z,981.02
2019-01-30T13:03:38.295Z,981.03
2019-01-30T13:04:46.998Z,981.06
2019-01-30T13:05:47.757Z,981.01
2019-01-30T13:06:40.543Z,981.05
2019-01-30T13:07:37.380Z,981.02
2019-01-30T13:08:51.017Z,981.08
2019-01-30T13:09:39.864Z,981.09
2019-01-30T13:10:38.375Z,981.09
2019-01-30T13:11:39.701Z,981.06
2019-01-30T13:12:41.389Z,981.06
2019-01-30T13:13:36.280Z,981.11
2019-01-30T13:14:39.229Z,981.13
2019-01-30T13:15:38.649Z,981.06
2019-01-30T13:16:41.039Z,981.10
2019-01-30T13:17:41.178Z,981.01
2019-01-30T13:18:37.596Z,981.11
2019-01-30T13:19:38.962Z,981.15
2019-01-30T13:20:34.954Z,981.07
2019-01-30T13:21:35.635Z,981.17
2019-01-30T13:22:39.762Z,981.23
2019-01-30T13:23:38.472Z,981.19
2019-01-30T13:24:35.462Z,981.25
2019-01-30T13:25:34.269Z,981.25
2019-01-30T13:26:35.951Z,981.17
2019-01-30T13:27:35.774Z,981.18
2019-01-30T13:28:35.140Z,981.25
2019-01-30T13:29:35.220Z,981.23
2019-01-30T13:30:35.893Z,981.21
2019-01-30T13:31:35.597Z,981.36
2019-01-30T13:32:42.685Z,981.37
2019-01-30T13:33:34.800Z,981.38
2019-01-30T13:34:35.704Z,981.39
2019-01-30T13:35:51.867Z,981.41
2019-01-30T13:36:46.295Z,981.44
2019-01-30T13:37:47.342Z,981.45
2019-01-30T13:38:40.726Z,981.39
2019-01-30T13:39:46.897Z,981.50
2019-01-30T13:40:44.917Z,981.43
2019-01-30T13:41:52.984Z,981.43
2019-01-30T13:42:43.674Z,981.47
2019-01-30T13:43:43.752Z,981.48
2019-01-30T13:44:49.703Z,981.56
2019-01-30T13:45:34.581Z,981.59
2019-01-30T13:46:47.414Z,981.59
2019-01-30T13:47:39.616Z,981.67
2019-01-30T13:48:36.466Z,981.73
2019-01-30T13:49:41.530Z,981.73
2019-01-30T13:50:46.566Z,981.76
2019-01-30T13:51:33.612Z,981.73
2019-01-30T13:52:36.648Z,981.78
2019-01-30T13:53:41.859Z,981.78
2019-01-30T13:54:43.713Z,981.75
2019-01-30T13:55:40.067Z,981.79
2019-01-30T13:56:42.337Z,981.81
2019-01-30T13:57:35.982Z,981.87
2019-01-30T13:58:48.898Z,981.86
2019-01-30T13:59:45.747Z,981.80
2019-01-30T14:00:42.228Z,981.86
2019-01-30T14:01:51.948Z,981.88
2019-01-30T14:02:41.534Z,981.84
2019-01-30T14:03:41.334Z,981.92
2019-01-30T14:04:41.665Z,981.95
2019-01-30T14:05:45.271Z,981.93
2019-01-30T14:06:41.679Z,981.93
2019-01-30T14:07:42.378Z,981.94
2019-01-30T14:08:40.267Z,981.95
2019-01-30T14:09:41.633Z,981.97
2019-01-30T14:10:37.259Z,981.99
2019-01-30T14:11:39.396Z,982.03
2019-01-30T14:12:43.621Z,982.10
2019-01-30T14:13:39.749Z,982.06
2019-01-30T14:14:36.695Z,982.06
2019-01-30T14:15:47.855Z,982.11
2019-01-30T14:16:37.768Z,982.12
2019-01-30T14:17:42.731Z,982.08
2019-01-30T14:18:34.473Z,982.11
2019-01-30T14:19:34.196Z,982.14
2019-01-30T14:20:37.196Z,982.17
2019-01-30T14:21:41.915Z,982.10
2019-01-30T14:22:59.670Z,982.17
2019-01-30T14:23:39.180Z,982.23
2019-01-30T14:24:45.321Z,982.27
2019-01-30T14:25:41.531Z,982.28
2019-01-30T14:26:37.321Z,982.23
2019-01-30T14:27:38.973Z,982.25
2019-01-30T14:28:32.591Z,982.25
2019-01-30T14:29:32.433Z,982.30
2019-01-30T14:30:32.316Z,982.34
2019-01-30T14:31:32.324Z,982.36
2019-01-30T14:32:32.645Z,982.41
2019-01-30T14:33:34.921Z,982.39
2019-01-30T14:34:33.407Z,982.39
2019-01-30T14:35:33.424Z,982.48
2019-01-30T14:36:41.042Z,982.51
2019-01-30T14:37:34.931Z,982.50
2019-01-30T14:38:33.570Z,982.54
2019-01-30T14:39:34.174Z,982.61
2019-01-30T14:40:33.938Z,982.52
2019-01-30T14:41:33.530Z,982.53
2019-01-30T14:42:33.766Z,982.56
2019-01-30T14:43:32.342Z,982.55
2019-01-30T14:44:33.464Z,982.67
2019-01-30T14:45:33.054Z,982.72
2019-01-30T14:46:47.703Z,982.66
2019-01-30T14:47:33.354Z,982.60
2019-01-30T14:48:38.225Z,982.65
2019-01-30T14:49:40.310Z,982.73
2019-01-30T14:50:38.888Z,982.74
2019-01-30T14:52:01.375Z,982.73
2019-01-30T14:52:46.542Z,982.76
2019-01-30T14:53:32.380Z,982.84
2019-01-30T14:55:46.496Z,982.83
2019-01-30T14:56:40.565Z,982.87
2019-01-30T14:57:42.042Z,982.82
2019-01-30T14:58:39.687Z,982.78
2019-01-30T14:59:39.063Z,982.78
2019-01-30T15:01:55.606Z,982.81
2019-01-30T15:02:55.072Z,982.79
2019-01-30T15:03:58.826Z,982.84
2019-01-30T15:04:54.601Z,982.86
2019-01-30T15:05:53.327Z,982.93
2019-01-30T15:06:53.637Z,982.87
2019-01-30T15:07:55.037Z,982.93
2019-01-30T15:09:02.797Z,983.01
2019-01-30T15:09:54.564Z,983.03
2019-01-30T15:10:54.046Z,983.03
2019-01-30T15:11:54.637Z,983.05
2019-01-30T15:12:55.453Z,983.12
2019-01-30T15:13:56.849Z,983.08
2019-01-30T15:14:57.047Z,983.14
2019-01-30T15:15:56.535Z,983.12
2019-01-30T15:16:55.204Z,983.16
2019-01-30T15:17:55.597Z,983.22
2019-01-30T15:18:55.690Z,983.24
2019-01-30T15:19:56.972Z,983.20
2019-01-30T15:20:54.569Z,983.28
2019-01-30T15:21:56.799Z,983.30
2019-01-30T15:22:53.943Z,983.28
2019-01-30T15:23:54.549Z,983.28
2019-01-30T15:24:53.530Z,983.36
2019-01-30T15:25:54.966Z,983.33
2019-01-30T15:26:59.544Z,983.36
2019-01-30T15:27:54.310Z,983.38
2019-01-30T15:28:53.031Z,983.42
2019-01-30T15:37:52.839Z,983.63
2019-01-30T15:38:51.432Z,983.52
2019-01-30T15:39:51.440Z,983.62
2019-01-30T15:40:49.592Z,983.64
2019-01-30T15:41:52.350Z,983.63
2019-01-30T15:42:51.829Z,983.63
2019-01-30T15:43:51.473Z,983.60
2019-01-30T15:44:49.389Z,983.69
2019-01-30T15:45:49.377Z,983.71
2019-01-30T15:46:49.364Z,983.67
2019-01-30T15:47:49.395Z,983.73
2019-01-30T15:48:49.354Z,983.72
2019-01-30T15:49:49.453Z,983.75
2019-01-30T15:50:49.385Z,983.84
2019-01-30T15:51:49.368Z,983.80
2019-01-30T15:52:49.321Z,983.91
2019-01-30T15:53:49.417Z,983.94
2019-01-30T15:54:49.284Z,983.93
2019-01-30T15:55:49.323Z,983.93
2019-01-30T15:56:49.355Z,983.99
2019-01-30T15:57:49.342Z,983.97
2019-01-30T15:58:49.277Z,983.99
2019-01-30T15:59:49.316Z,984.03
2019-01-30T16:00:49.242Z,984.05
